Time,TemperatureF,DewpointF,PressureIn,WindDirection,WindDirectionDegrees,WindSpeedMPH,WindSpeedGustMPH,Humidity,HourlyPrecipIn,Conditions,Clouds,dailyrainin,SoftwareType,DateUTC
2013-04-27 00:01:00,55.4,34.9,30.12,NW,323,0.0,0.0,46,0.00,CLR,,0.00,WeatherDisplay:10.37,2013-04-27 05:01:00,
2013-04-27 00:06:00,55.0,34.6,30.12,NW,323,0.0,0.0,46,0.00,CLR,,0.00,WeatherDisplay:10.37,2013-04-27 05:06:00,
2013-04-27 00:11:00,54.4,34.0,30.12,NW,323,1.1,1.1,46,0.00,CLR,,0.00,WeatherDisplay:10.37,2013-04-27 05:11:00,
2013-04-27 00:16:00,54.2,34.4,30.12,NW,323,1.1,0.0,47,0.00,CLR,,0.00,WeatherDisplay:10.37,2013-04-27 05:16:00,
2013-04-27 00:21:00,54.2,33.9,30.12,NW,323,2.3,0.0,46,0.00,CLR,,0.00,WeatherDisplay:10.37,2013-04-27 05:21:00,
2013-04-27 00:26:00,54.4,34.0,30.12,NW,323,2.3,2.3,46,0.00,CLR,,0.00,WeatherDisplay:10.37,2013-04-27 05:26:00,
2013-04-27 00:31:00,54.4,34.0,30.12,NW,323,1.1,0.0,46,0.00,CLR,,0.00,WeatherDisplay:10.37,2013-04-27 05:31:00,
2013-04-27 00:36:00,54.2,33.9,30.12,NW,323,0.0,0.0,46,0.00,CLR,,0.00,WeatherDisplay:10.37,2013-04-27 05:36:00,
2013-04-27 00:41:00,54.1,34.3,30.12,NW,323,1.1,1.1,47,0.00,CLR,,0.00,WeatherDisplay:10.37,2013-04-27 05:41:00,
2013-04-27 00:46:00,53.8,34.0,30.12,NW,323,0.0,0.0,47,0.00,CLR,,0.00,WeatherDisplay:10.37,2013-04-27 05:46:00,
2013-04-27 00:51:00,53.6,33.3,30.12,NW,323,1.1,1.1,46,0.00,CLR,,0.00,WeatherDisplay:10.37,2013-04-27 05:51:00,
2013-04-27 00:56:00,53.6,33.8,30.12,NW,323,0.0,0.0,47,0.00,CLR,,0.00,WeatherDisplay:10.37,2013-04-27 05:56:00,
2013-04-27 01:01:00,53.6,33.3,30.12,NW,323,2.0,2.0,46,0.00,CLR,,0.00,WeatherDisplay:10.37,2013-04-27 06:01:00,
2013-04-27 01:06:00,53.8,33.5,30.12,NW,323,1.1,1.1,46,0.00,CLR,,0.00,WeatherDisplay:10.37,2013-04-27 06:06:00,
2013-04-27 01:11:00,53.6,33.8,30.12,NW,323,2.3,2.3,47,0.00,CLR,,0.00,WeatherDisplay:10.37,2013-04-27 06:11:00,
2013-04-27 01:16:00,53.3,33.6,30.12,NW,323,1.1,0.0,47,0.00,CLR,,0.00,WeatherDisplay:10.37,2013-04-27 06:16:00,
2013-04-27 01:21:00,52.9,33.7,30.12,NW,323,1.1,1.1,48,0.00,CLR,,0.00,WeatherDisplay:10.37,2013-04-27 06:21:00,
2013-04-27 01:26:00,52.8,33.1,30.12,NW,323,2.3,0.0,47,0.00,CLR,,0.00,WeatherDisplay:10.37,2013-04-27 06:26:00,
2013-04-27 01:31:00,52.9,33.2,30.12,NW,323,1.1,1.1,47,0.00,CLR,,0.00,WeatherDisplay:10.37,2013-04-27 06:31:00,
2013-04-27 01:36:00,53.1,32.8,30.12,NW,323,1.1,0.0,46,0.00,CLR,,0.00,WeatherDisplay:10.37,2013-04-27 06:36:00,
2013-04-27 01:41:00,53.2,32.9,30.12,NW,323,0.0,0.0,46,0.00,CLR,,0.00,WeatherDisplay:10.37,2013-04-27 06:41:00,
2013-04-27 01:46:00,53.1,33.4,30.11,NW,323,0.0,0.0,47,0.00,CLR,,0.00,WeatherDisplay:10.37,2013-04-27 06:46:00,
2013-04-27 01:51:00,52.8,33.1,30.11,NW,323,0.0,0.0,47,0.00,CLR,,0.00,WeatherDisplay:10.37,2013-04-27 06:51:00,
2013-04-27 01:56:00,52.5,32.8,30.11,NW,323,1.1,0.0,47,0.00,CLR,,0.00,WeatherDisplay:10.37,2013-04-27 06:56:00,
2013-04-27 02:01:00,52.2,33.1,30.12,NW,323,0.0,0.0,48,0.00,CLR,,0.00,WeatherDisplay:10.37,2013-04-27 07:01:00,
2013-04-27 02:06:00,51.9,32.8,30.12,NW,323,0.0,0.0,48,0.00,CLR,,0.00,WeatherDisplay:10.37,2013-04-27 07:06:00,
2013-04-27 02:11:00,51.7,33.1,30.12,NW,323,0.0,0.0,49,0.00,CLR,,0.00,WeatherDisplay:10.37,2013-04-27 07:11:00,
2013-04-27 02:16:00,51.6,33.0,30.12,NW,323,0.0,0.0,49,0.00,CLR,,0.00,WeatherDisplay:10.37,2013-04-27 07:16:00,
2013-04-27 02:21:00,51.4,33.4,30.12,NW,323,0.0,0.0,50,0.00,CLR,,0.00,WeatherDisplay:10.37,2013-04-27 07:21:00,
2013-04-27 02:26:00,51.1,33.1,30.12,NW,323,0.0,0.0,50,0.00,CLR,,0.00,WeatherDisplay:10.37,2013-04-27 07:26:00,
2013-04-27 02:31:00,50.7,33.2,30.11,NW,323,0.0,0.0,51,0.00,CLR,,0.00,WeatherDisplay:10.37,2013-04-27 07:31:00,
2013-04-27 02:36:00,50.1,33.6,30.11,NW,323,0.0,0.0,53,0.00,CLR,,0.00,WeatherDisplay:10.37,2013-04-27 07:36:00,
2013-04-27 02:41:00,49.5,33.1,30.11,NW,323,0.0,0.0,53,0.00,CLR,,0.00,WeatherDisplay:10.37,2013-04-27 07:41:00,
2013-04-27 02:46:00,48.9,33.0,30.11,NW,323,0.0,0.0,54,0.00,CLR,,0.00,WeatherDisplay:10.37,2013-04-27 07:46:00,
2013-04-27 02:51:00,48.3,33.3,30.11,NW,323,0.0,0.0,56,0.00,CLR,,0.00,WeatherDisplay:10.37,2013-04-27 07:51:00,
2013-04-27 02:56:00,48.2,33.2,30.11,NW,323,0.0,0.0,56,0.00,CLR,,0.00,WeatherDisplay:10.37,2013-04-27 07:56:00,
2013-04-27 03:01:00,48.0,33.5,30.11,NW,323,0.0,0.0,57,0.00,CLR,,0.00,WeatherDisplay:10.37,2013-04-27 08:01:00,
2013-04-27 03:06:00,47.9,32.9,30.11,NW,323,0.0,0.0,56,0.00,CLR,,0.00,WeatherDisplay:10.37,2013-04-27 08:06:00,
2013-04-27 03:11:00,47.7,32.8,30.11,NW,323,0.0,0.0,56,0.00,CLR,,0.00,WeatherDisplay:10.37,2013-04-27 08:11:00,
2013-04-27 03:16:00,47.3,33.3,30.10,NW,323,2.3,2.3,58,0.00,CLR,,0.00,WeatherDisplay:10.37,2013-04-27 08:16:00,
2013-04-27 03:21:00,47.0,33.8,30.10,NW,323,2.0,2.0,60,0.00,CLR,,0.00,WeatherDisplay:10.37,2013-04-27 08:21:00,
2013-04-27 03:26:00,46.7,34.4,30.10,NW,323,2.3,2.3,62,0.00,CLR,,0.00,WeatherDisplay:10.37,2013-04-27 08:26:00,
2013-04-27 03:31:00,46.2,34.3,30.10,NW,323,0.0,0.0,63,0.00,CLR,,0.00,WeatherDisplay:10.37,2013-04-27 08:31:00,
2013-04-27 03:36:00,45.8,34.3,30.10,NW,323,0.0,0.0,64,0.00,CLR,,0.00,WeatherDisplay:10.37,2013-04-27 08:36:00,
2013-04-27 03:41:00,45.4,33.9,30.10,NW,323,0.0,0.0,64,0.00,CLR,,0.00,WeatherDisplay:10.37,2013-04-27 08:41:00,
2013-04-27 03:46:00,44.9,33.5,30.10,NW,323,0.0,0.0,64,0.00,CLR,,0.00,WeatherDisplay:10.37,2013-04-27 08:46:00,
2013-04-27 03:51:00,44.6,33.2,30.10,NW,323,0.0,0.0,64,0.00,CLR,,0.00,WeatherDisplay:10.37,2013-04-27 08:51:00,
2013-04-27 03:56:00,44.1,33.5,30.10,NW,323,0.0,0.0,66,0.00,CLR,,0.00,WeatherDisplay:10.37,2013-04-27 08:56:00,
2013-04-27 04:01:00,43.3,33.1,30.10,NW,323,0.0,0.0,67,0.00,CLR,,0.00,WeatherDisplay:10.37,2013-04-27 09:01:00,
2013-04-27 04:06:00,42.9,33.4,30.10,NW,323,0.0,0.0,69,0.00,CLR,,0.00,WeatherDisplay:10.37,2013-04-27 09:06:00,
2013-04-27 04:11:00,42.5,33.4,30.10,NW,323,0.0,0.0,70,0.00,CLR,,0.00,WeatherDisplay:10.37,2013-04-27 09:11:00,
2013-04-27 04:16:00,42.1,33.4,30.10,NW,323,0.0,0.0,71,0.00,CLR,,0.00,WeatherDisplay:10.37,2013-04-27 09:16:00,
2013-04-27 04:21:00,41.9,33.5,30.10,NW,323,0.0,0.0,72,0.00,CLR,,0.00,WeatherDisplay:10.37,2013-04-27 09:21:00,
2013-04-27 04:26:00,41.9,33.5,30.10,NW,323,0.0,0.0,72,0.00,CLR,,0.00,WeatherDisplay:10.37,2013-04-27 09:26:00,
2013-04-27 04:31:00,42.1,33.4,30.10,NW,323,0.0,0.0,71,0.00,CLR,,0.00,WeatherDisplay:10.37,2013-04-27 09:31:00,
2013-04-27 04:36:00,42.1,33.0,30.10,NW,323,0.0,0.0,70,0.00,CLR,,0.00,WeatherDisplay:10.37,2013-04-27 09:36:00,
2013-04-27 04:41:00,42.5,33.0,30.10,NW,323,0.0,0.0,69,0.00,CLR,,0.00,WeatherDisplay:10.37,2013-04-27 09:41:00,
2013-04-27 04:46:00,43.2,33.3,30.10,NW,323,0.0,0.0,68,0.00,CLR,,0.00,WeatherDisplay:10.37,2013-04-27 09:46:00,
2013-04-27 04:51:00,43.5,33.6,30.10,NW,323,0.0,0.0,68,0.00,CLR,,0.00,WeatherDisplay:10.37,2013-04-27 09:51:00,
2013-04-27 04:56:00,43.3,33.4,30.10,NW,323,0.0,0.0,68,0.00,CLR,,0.00,WeatherDisplay:10.37,2013-04-27 09:56:00,
2013-04-27 05:01:00,43.3,33.1,30.09,NW,323,0.0,0.0,67,0.00,CLR,,0.00,WeatherDisplay:10.37,2013-04-27 10:01:00,
2013-04-27 05:06:00,43.5,32.5,30.09,NW,323,0.0,0.0,65,0.00,CLR,,0.00,WeatherDisplay:10.37,2013-04-27 10:06:00,
2013-04-27 05:11:00,43.9,32.9,30.09,NW,323,0.0,0.0,65,0.00,CLR,,0.00,WeatherDisplay:10.37,2013-04-27 10:11:00,
2013-04-27 05:16:00,44.1,33.1,30.09,NW,323,0.0,0.0,65,0.00,CLR,,0.00,WeatherDisplay:10.37,2013-04-27 10:16:00,
2013-04-27 05:21:00,43.8,33.2,30.09,NW,323,0.0,0.0,66,0.00,CLR,,0.00,WeatherDisplay:10.37,2013-04-27 10:21:00,
2013-04-27 05:26:00,43.2,33.3,30.09,NW,323,0.0,0.0,68,0.00,CLR,,0.00,WeatherDisplay:10.37,2013-04-27 10:26:00,
2013-04-27 05:31:00,42.9,33.1,30.09,NW,323,0.0,0.0,68,0.00,CLR,,0.00,WeatherDisplay:10.37,2013-04-27 10:31:00,
2013-04-27 05:36:00,42.9,33.1,30.09,NW,323,0.0,0.0,68,0.00,CLR,,0.00,WeatherDisplay:10.37,2013-04-27 10:36:00,
2013-04-27 05:41:00,42.9,33.1,30.09,NW,323,0.0,0.0,68,0.00,CLR,,0.00,WeatherDisplay:10.37,2013-04-27 10:41:00,
2013-04-27 05:46:00,42.9,32.7,30.08,NW,323,0.0,0.0,67,0.00,CLR,,0.00,WeatherDisplay:10.37,2013-04-27 10:46:00,
2013-04-27 05:51:00,43.3,32.7,30.08,NW,323,1.0,1.0,66,0.00,CLR,,0.00,WeatherDisplay:10.37,2013-04-27 10:51:00,
2013-04-27 05:56:00,43.9,32.9,30.08,NW,323,0.0,0.0,65,0.00,CLR,,0.00,WeatherDisplay:10.37,2013-04-27 10:56:00,
2013-04-27 06:01:00,43.8,32.8,30.08,SE,134,4.0,4.0,65,0.00,CLR,,0.00,WeatherDisplay:10.37,2013-04-27 11:01:00,
2013-04-27 06:06:00,43.3,33.1,30.08,SE,137,0.0,0.0,67,0.00,CLR,,0.00,WeatherDisplay:10.37,2013-04-27 11:06:00,
2013-04-27 06:11:00,43.2,33.0,30.08,SE,137,0.0,0.0,67,0.00,CLR,,0.00,WeatherDisplay:10.37,2013-04-27 11:11:00,
2013-04-27 06:16:00,42.8,33.0,30.08,SE,137,3.0,3.0,68,0.00,CLR,,0.00,WeatherDisplay:10.37,2013-04-27 11:16:00,
2013-04-27 06:21:00,42.5,33.4,30.08,SSE,154,2.3,2.3,70,0.00,CLR,,0.00,WeatherDisplay:10.37,2013-04-27 11:21:00,
2013-04-27 06:26:00,42.1,33.7,30.08,SSE,154,3.5,3.5,72,0.00,CLR,,0.00,WeatherDisplay:10.37,2013-04-27 11:26:00,
2013-04-27 06:31:00,41.8,34.1,30.09,SSE,155,4.6,4.6,74,0.00,CLR,,0.00,WeatherDisplay:10.37,2013-04-27 11:31:00,
2013-04-27 06:36:00,41.8,34.1,30.09,South,177,5.8,5.8,74,0.00,CLR,,0.00,WeatherDisplay:10.37,2013-04-27 11:36:00,
2013-04-27 06:41:00,42.1,34.1,30.09,South,177,3.5,3.5,73,0.00,CLR,,0.00,WeatherDisplay:10.37,2013-04-27 11:41:00,
2013-04-27 06:46:00,42.2,34.5,30.09,South,177,4.0,4.0,74,0.00,CLR,,0.00,WeatherDisplay:10.37,2013-04-27 11:46:00,
2013-04-27 06:51:00,42.8,34.7,30.09,South,177,3.5,3.5,73,0.00,CLR,,0.00,WeatherDisplay:10.37,2013-04-27 11:51:00,
2013-04-27 06:56:00,43.5,34.7,30.09,South,178,5.8,5.8,71,0.00,CLR,,0.00,WeatherDisplay:10.37,2013-04-27 11:56:00,
2013-04-27 07:01:00,44.1,34.9,30.08,South,178,2.3,2.3,70,0.00,CLR,,0.00,WeatherDisplay:10.37,2013-04-27 12:01:00,
2013-04-27 07:06:00,44.6,35.4,30.08,South,178,1.1,0.0,70,0.00,CLR,,0.00,WeatherDisplay:10.37,2013-04-27 12:06:00,
2013-04-27 07:11:00,45.2,35.3,30.08,South,178,2.3,0.0,68,0.00,CLR,,0.00,WeatherDisplay:10.37,2013-04-27 12:11:00,
2013-04-27 07:16:00,45.8,35.5,30.08,South,178,2.3,0.0,67,0.00,CLR,,0.00,WeatherDisplay:10.37,2013-04-27 12:16:00,
2013-04-27 07:21:00,46.5,35.7,30.08,South,178,3.5,3.5,66,0.00,CLR,,0.00,WeatherDisplay:10.37,2013-04-27 12:21:00,
2013-04-27 07:26:00,47.3,36.1,30.08,South,178,3.0,3.0,65,0.00,CLR,,0.00,WeatherDisplay:10.37,2013-04-27 12:26:00,
2013-04-27 07:31:00,48.2,36.6,30.08,South,180,4.6,4.6,64,0.00,CLR,,0.00,WeatherDisplay:10.37,2013-04-27 12:31:00,
2013-04-27 07:36:00,48.9,38.0,30.08,South,180,5.0,5.0,66,0.00,CLR,,0.00,WeatherDisplay:10.37,2013-04-27 12:36:00,
2013-04-27 07:41:00,49.1,38.6,30.08,SSE,168,5.8,5.8,67,0.00,CLR,,0.00,WeatherDisplay:10.37,2013-04-27 12:41:00,
2013-04-27 07:46:00,49.2,39.1,30.08,South,177,3.5,3.5,68,0.00,CLR,,0.00,WeatherDisplay:10.37,2013-04-27 12:46:00,
2013-04-27 07:51:00,49.1,38.6,30.08,South,177,3.5,3.5,67,0.00,CLR,,0.00,WeatherDisplay:10.37,2013-04-27 12:51:00,
2013-04-27 07:56:00,49.4,39.7,30.08,South,177,5.0,5.0,69,0.00,CLR,,0.00,WeatherDisplay:10.37,2013-04-27 12:56:00,
2013-04-27 08:01:00,49.6,40.9,30.09,South,177,4.6,4.6,72,0.00,CLR,,0.00,WeatherDisplay:10.37,2013-04-27 13:01:00,
2013-04-27 08:06:00,50.1,41.4,30.09,South,178,4.0,4.0,72,0.00,CLR,,0.00,WeatherDisplay:10.37,2013-04-27 13:06:00,
2013-04-27 08:11:00,50.8,41.4,30.09,South,178,4.6,4.8,70,0.00,CLR,,0.00,WeatherDisplay:10.37,2013-04-27 13:11:00,
2013-04-27 08:16:00,51.1,41.7,30.08,SSE,167,6.0,6.0,70,0.00,CLR,,0.00,WeatherDisplay:10.37,2013-04-27 13:16:00,
2013-04-27 08:21:00,51.0,41.6,30.08,South,170,5.8,5.8,70,0.00,CLR,,0.00,WeatherDisplay:10.37,2013-04-27 13:21:00,
2013-04-27 08:26:00,51.4,42.7,30.08,South,170,4.6,4.6,72,0.00,CLR,,0.00,WeatherDisplay:10.37,2013-04-27 13:26:00,
2013-04-27 08:31:00,51.7,43.0,30.09,SSE,160,6.9,6.9,72,0.00,CLR,,0.00,WeatherDisplay:10.37,2013-04-27 13:31:00,
2013-04-27 08:36:00,52.0,43.6,30.09,South,169,10.4,10.4,73,0.00,CLR,,0.00,WeatherDisplay:10.37,2013-04-27 13:36:00,
2013-04-27 08:41:00,52.3,44.6,30.09,SSE,165,2.0,2.0,75,0.00,CLR,,0.00,WeatherDisplay:10.37,2013-04-27 13:41:00,
2013-04-27 08:48:00,53.6,44.4,30.09,South,180,4.0,4.0,71,0.00,CLR,,0.00,WeatherDisplay:10.37,2013-04-27 13:48:00,
2013-04-27 08:53:00,53.6,45.2,30.09,South,180,4.6,4.6,73,0.00,CLR,,0.00,WeatherDisplay:10.37,2013-04-27 13:53:00,
2013-04-27 08:58:00,54.2,45.4,30.09,South,180,2.3,2.3,72,0.00,CLR,,0.00,WeatherDisplay:10.37,2013-04-27 13:58:00,
2013-04-27 09:03:00,54.8,45.6,30.09,South,180,2.3,2.3,71,0.00,CLR,,0.00,WeatherDisplay:10.37,2013-04-27 14:03:00,
2013-04-27 09:08:00,56.0,46.4,30.09,South,180,3.5,3.5,70,0.00,CLR,,0.00,WeatherDisplay:10.37,2013-04-27 14:08:00,
2013-04-27 09:13:00,56.7,44.7,30.09,SSE,160,4.0,4.0,64,0.00,CLR,,0.00,WeatherDisplay:10.37,2013-04-27 14:13:00,
2013-04-27 09:20:00,56.2,45.0,30.09,South,185,2.0,10.0,66,0.00,CLR,,0.00,WeatherDisplay:10.37,2013-04-27 14:20:00,
2013-04-27 09:25:00,56.9,44.8,30.09,South,185,3.0,7.0,64,0.00,CLR,,0.00,WeatherDisplay:10.37,2013-04-27 14:25:00,
2013-04-27 09:35:00,57.6,45.9,30.09,SSE,166,3.0,7.0,65,0.00,CLR,,0.00,WeatherDisplay:10.37,2013-04-27 14:35:00,
2013-04-27 09:40:00,58.0,46.3,30.09,SSW,196,1.0,1.3,65,0.00,CLR,,0.00,WeatherDisplay:10.37,2013-04-27 14:40:00,
2013-04-27 09:45:00,58.3,46.6,30.09,SSE,152,5.8,5.8,65,0.00,CLR,,0.00,WeatherDisplay:10.37,2013-04-27 14:45:00,
2013-04-27 09:50:00,58.4,46.7,30.08,South,184,8.0,8.0,65,0.00,CLR,,0.00,WeatherDisplay:10.37,2013-04-27 14:50:00,
2013-04-27 09:55:00,58.9,47.2,30.08,SSE,159,5.0,5.0,65,0.00,CLR,,0.00,WeatherDisplay:10.37,2013-04-27 14:55:00,
2013-04-27 10:00:00,59.8,47.2,30.08,South,182,4.6,4.6,63,0.00,CLR,,0.00,WeatherDisplay:10.37,2013-04-27 15:00:00,
2013-04-27 10:05:00,60.1,46.6,30.08,South,182,3.5,3.5,61,0.00,CLR,,0.00,WeatherDisplay:10.37,2013-04-27 15:05:00,
2013-04-27 10:10:00,60.2,44.9,30.08,South,175,6.9,6.9,57,0.00,CLR,,0.00,WeatherDisplay:10.37,2013-04-27 15:10:00,
2013-04-27 10:15:00,60.7,44.4,30.08,South,186,6.9,6.9,55,0.00,CLR,,0.00,WeatherDisplay:10.37,2013-04-27 15:15:00,
2013-04-27 10:20:00,61.3,45.0,30.08,SSE,162,4.6,4.6,55,0.00,CLR,,0.00,WeatherDisplay:10.37,2013-04-27 15:20:00,
2013-04-27 10:25:00,61.8,45.0,30.08,SSW,204,6.0,6.0,54,0.00,CLR,,0.00,WeatherDisplay:10.37,2013-04-27 15:25:00,
2013-04-27 10:30:00,62.7,44.8,30.08,South,185,5.8,5.8,52,0.00,CLR,,0.00,WeatherDisplay:10.37,2013-04-27 15:30:00,
2013-04-27 10:35:00,63.4,44.4,30.08,SW,225,6.9,6.9,50,0.00,CLR,,0.00,WeatherDisplay:10.37,2013-04-27 15:35:00,
2013-04-27 10:40:00,64.2,44.6,30.08,SSW,210,4.6,4.6,49,0.00,CLR,,0.00,WeatherDisplay:10.37,2013-04-27 15:40:00,
2013-04-27 10:45:00,65.0,44.8,30.08,South,170,5.8,5.8,48,0.00,CLR,,0.00,WeatherDisplay:10.37,2013-04-27 15:45:00,
2013-04-27 10:50:00,65.8,45.6,30.08,SSW,198,6.0,6.0,48,0.00,CLR,,0.00,WeatherDisplay:10.37,2013-04-27 15:50:00,
2013-04-27 10:55:00,66.0,45.2,30.08,SE,134,4.0,4.0,47,0.00,CLR,,0.00,WeatherDisplay:10.37,2013-04-27 15:55:00,
2013-04-27 11:00:00,67.1,46.2,30.08,SSE,161,4.6,4.6,47,0.00,CLR,,0.00,WeatherDisplay:10.37,2013-04-27 16:00:00,
2013-04-27 11:05:00,66.6,45.7,30.08,South,173,10.4,10.4,47,0.00,CLR,,0.00,WeatherDisplay:10.37,2013-04-27 16:05:00,
2013-04-27 11:10:00,66.4,45.0,30.08,SSW,208,9.2,9.2,46,0.00,CLR,,0.00,WeatherDisplay:10.37,2013-04-27 16:10:00,
2013-04-27 11:15:00,66.4,45.0,30.08,SSE,157,3.5,3.5,46,0.00,CLR,,0.00,WeatherDisplay:10.37,2013-04-27 16:15:00,
2013-04-27 11:20:00,67.4,45.3,30.08,SSE,168,3.5,3.5,45,0.00,CLR,,0.00,WeatherDisplay:10.37,2013-04-27 16:20:00,
2013-04-27 11:25:00,67.4,43.5,30.08,SW,215,11.5,11.5,42,0.00,CLR,,0.00,WeatherDisplay:10.37,2013-04-27 16:25:00,
2013-04-27 11:30:00,67.1,43.8,30.08,SW,215,5.8,5.8,43,0.00,CLR,,0.00,WeatherDisplay:10.37,2013-04-27 16:30:00,
2013-04-27 11:35:00,67.6,44.9,30.07,SW,230,6.9,6.9,44,0.00,CLR,,0.00,WeatherDisplay:10.37,2013-04-27 16:35:00,
2013-04-27 11:40:00,68.4,45.6,30.07,SSE,163,6.9,6.9,44,0.00,CLR,,0.00,WeatherDisplay:10.37,2013-04-27 16:40:00,
2013-04-27 11:45:00,69.6,45.5,30.07,SSE,159,3.5,3.5,42,0.00,CLR,,0.00,WeatherDisplay:10.37,2013-04-27 16:45:00,
2013-04-27 11:50:00,70.4,45.6,30.07,SSE,159,6.0,6.0,41,0.00,CLR,,0.00,WeatherDisplay:10.37,2013-04-27 16:50:00,
2013-04-27 11:55:00,71.1,44.2,30.07,SSE,167,3.5,3.5,38,0.00,CLR,,0.00,WeatherDisplay:10.37,2013-04-27 16:55:00,
2013-04-27 12:00:00,71.3,45.7,30.07,South,169,3.5,3.5,40,0.00,CLR,,0.00,WeatherDisplay:10.37,2013-04-27 17:00:00,
2013-04-27 12:05:00,72.1,45.1,30.07,SE,136,3.5,3.5,38,0.00,CLR,,0.00,WeatherDisplay:10.37,2013-04-27 17:05:00,
2013-04-27 12:10:00,71.5,43.1,30.07,WSW,238,11.5,11.5,36,0.00,CLR,,0.00,WeatherDisplay:10.37,2013-04-27 17:10:00,
2013-04-27 12:15:00,71.1,44.2,30.07,East,84,5.0,5.0,38,0.00,CLR,,0.00,WeatherDisplay:10.37,2013-04-27 17:15:00,
2013-04-27 12:20:00,71.1,42.8,30.06,SSW,196,7.0,7.0,36,0.00,CLR,,0.00,WeatherDisplay:10.37,2013-04-27 17:20:00,
2013-04-27 12:25:00,70.1,44.6,30.06,SSE,155,6.9,6.9,40,0.00,CLR,,0.00,WeatherDisplay:10.37,2013-04-27 17:25:00,
2013-04-27 12:30:00,69.9,43.1,30.06,SSE,164,4.6,4.6,38,0.00,CLR,,0.00,WeatherDisplay:10.37,2013-04-27 17:30:00,
2013-04-27 12:35:00,70.7,42.5,30.06,SSE,161,1.0,9.0,36,0.00,CLR,,0.00,WeatherDisplay:10.37,2013-04-27 17:35:00,
2013-04-27 12:40:00,70.7,45.9,30.06,South,170,3.0,12.0,41,0.00,CLR,,0.00,WeatherDisplay:10.37,2013-04-27 17:40:00,
2013-04-27 12:45:00,71.5,44.5,30.06,SSE,150,4.6,4.6,38,0.00,CLR,,0.00,WeatherDisplay:10.37,2013-04-27 17:45:00,
2013-04-27 12:50:00,71.5,44.5,30.05,South,169,6.0,6.0,38,0.00,CLR,,0.00,WeatherDisplay:10.37,2013-04-27 17:50:00,
2013-04-27 12:55:00,70.8,44.6,30.05,SSE,161,3.5,3.5,39,0.00,CLR,,0.00,WeatherDisplay:10.37,2013-04-27 17:55:00,
2013-04-27 13:00:00,71.5,44.5,30.05,South,186,10.4,10.4,38,0.00,CLR,,0.00,WeatherDisplay:10.37,2013-04-27 18:00:00,
2013-04-27 13:05:00,70.8,45.3,30.05,ESE,105,3.5,3.5,40,0.00,CLR,,0.00,WeatherDisplay:10.37,2013-04-27 18:05:00,
2013-04-27 13:10:00,71.1,45.5,30.05,SSW,194,11.5,11.5,40,0.00,CLR,,0.00,WeatherDisplay:10.37,2013-04-27 18:10:00,
2013-04-27 13:15:00,71.3,45.1,30.05,SSE,163,4.0,4.0,39,0.00,CLR,,0.00,WeatherDisplay:10.37,2013-04-27 18:15:00,
2013-04-27 13:20:00,72.1,45.1,30.04,ESE,105,3.5,3.5,38,0.00,CLR,,0.00,WeatherDisplay:10.37,2013-04-27 18:20:00,
2013-04-27 13:25:00,72.8,42.8,30.04,SSE,166,7.0,7.0,34,0.00,CLR,,0.00,WeatherDisplay:10.37,2013-04-27 18:25:00,
2013-04-27 13:30:00,72.7,43.5,30.04,SSE,164,9.2,9.2,35,0.00,CLR,,0.00,WeatherDisplay:10.37,2013-04-27 18:30:00,
2013-04-27 13:35:00,72.0,43.6,30.03,SSE,164,5.0,10.0,36,0.00,CLR,,0.00,WeatherDisplay:10.37,2013-04-27 18:35:00,
2013-04-27 13:40:00,72.3,43.8,30.03,SSE,162,13.0,13.0,36,0.00,CLR,,0.00,WeatherDisplay:10.37,2013-04-27 18:40:00,
2013-04-27 13:45:00,72.5,44.0,30.03,SSE,155,8.0,8.0,36,0.00,CLR,,0.00,WeatherDisplay:10.37,2013-04-27 18:45:00,
2013-04-27 13:50:00,71.6,42.5,30.02,South,180,11.5,11.5,35,0.00,CLR,,0.00,WeatherDisplay:10.37,2013-04-27 18:50:00,
2013-04-27 13:55:00,70.8,43.3,30.02,SSW,192,2.0,15.0,37,0.00,CLR,,0.00,WeatherDisplay:10.37,2013-04-27 18:55:00,
2013-04-27 14:00:00,71.5,43.1,30.02,SW,228,9.0,9.0,36,0.00,CLR,,0.00,WeatherDisplay:10.37,2013-04-27 19:00:00,
2013-04-27 14:05:00,71.3,43.0,30.02,South,169,11.5,11.5,36,0.00,CLR,,0.00,WeatherDisplay:10.37,2013-04-27 19:05:00,
2013-04-27 14:10:00,72.0,42.8,30.02,SSE,148,6.0,6.0,35,0.00,CLR,,0.00,WeatherDisplay:10.37,2013-04-27 19:10:00,
2013-04-27 14:15:00,72.3,42.3,30.02,South,183,11.5,11.5,34,0.00,CLR,,0.00,WeatherDisplay:10.37,2013-04-27 19:15:00,
2013-04-27 14:20:00,72.1,42.9,30.02,SE,136,3.5,3.5,35,0.00,CLR,,0.00,WeatherDisplay:10.37,2013-04-27 19:20:00,
2013-04-27 14:25:00,72.3,41.6,30.02,SSE,156,11.5,11.5,33,0.00,CLR,,0.00,WeatherDisplay:10.37,2013-04-27 19:25:00,
2013-04-27 14:30:00,72.5,40.1,30.02,SSW,198,9.0,9.0,31,0.00,CLR,,0.00,WeatherDisplay:10.37,2013-04-27 19:30:00,
2013-04-27 14:35:00,73.0,39.7,30.00,SSE,163,10.0,10.0,30,0.00,CLR,,0.00,WeatherDisplay:10.37,2013-04-27 19:35:00,
2013-04-27 14:40:00,72.5,41.0,30.00,SSE,155,9.2,9.2,32,0.00,CLR,,0.00,WeatherDisplay:10.37,2013-04-27 19:40:00,
2013-04-27 14:45:00,72.8,40.4,30.00,SW,227,12.7,12.7,31,0.00,CLR,,0.00,WeatherDisplay:10.37,2013-04-27 19:45:00,
2013-04-27 14:50:00,72.8,38.7,30.00,SW,232,11.5,11.5,29,0.00,CLR,,0.00,WeatherDisplay:10.37,2013-04-27 19:50:00,
2013-04-27 14:55:00,71.8,39.5,30.00,SE,136,12.7,12.7,31,0.00,CLR,,0.00,WeatherDisplay:10.37,2013-04-27 19:55:00,
2013-04-27 15:00:00,72.0,39.7,30.00,SSW,206,9.0,9.0,31,0.00,CLR,,0.00,WeatherDisplay:10.37,2013-04-27 20:00:00,
2013-04-27 15:05:00,72.3,39.1,29.99,South,191,13.8,13.8,30,0.00,CLR,,0.00,WeatherDisplay:10.37,2013-04-27 20:05:00,
2013-04-27 15:10:00,72.1,38.9,29.99,SSE,165,11.5,11.5,30,0.00,CLR,,0.00,WeatherDisplay:10.37,2013-04-27 20:10:00,
2013-04-27 15:15:00,72.7,38.6,29.99,SW,214,10.4,10.4,29,0.00,CLR,,0.00,WeatherDisplay:10.37,2013-04-27 20:15:00,
2013-04-27 15:20:00,73.2,39.0,29.99,South,183,5.8,5.8,29,0.00,CLR,,0.00,WeatherDisplay:10.37,2013-04-27 20:20:00,
2013-04-27 15:25:00,73.9,38.7,29.99,SW,226,3.5,3.5,28,0.00,SCT,,0.00,WeatherDisplay:10.37,2013-04-27 20:25:00,
2013-04-27 15:30:00,74.4,39.2,29.99,SSW,210,11.5,11.5,28,0.00,CLR,,0.00,WeatherDisplay:10.37,2013-04-27 20:30:00,
2013-04-27 15:35:00,74.2,38.1,29.98,SW,227,10.4,10.4,27,0.00,SCT,,0.00,WeatherDisplay:10.37,2013-04-27 20:35:00,
2013-04-27 15:40:00,74.0,38.8,29.98,SSW,195,6.0,9.0,28,0.00,SCT,,0.00,WeatherDisplay:10.37,2013-04-27 20:40:00,
2013-04-27 15:45:00,73.9,38.7,29.98,SSW,210,11.5,11.5,28,0.00,SCT,,0.00,WeatherDisplay:10.37,2013-04-27 20:45:00,
2013-04-27 15:50:00,73.5,38.4,29.97,South,187,11.5,11.5,28,0.00,CLR,,0.00,WeatherDisplay:10.37,2013-04-27 20:50:00,
2013-04-27 15:55:00,73.7,40.3,29.97,South,179,5.8,5.8,30,0.00,CLR,,0.00,WeatherDisplay:10.37,2013-04-27 20:55:00,
2013-04-27 16:00:00,73.5,38.4,29.97,SW,221,9.2,9.2,28,0.00,CLR,,0.00,WeatherDisplay:10.37,2013-04-27 21:00:00,
2013-04-27 16:05:00,74.2,39.0,29.97,South,188,7.0,7.0,28,0.00,CLR,,0.00,WeatherDisplay:10.37,2013-04-27 21:05:00,
2013-04-27 16:10:00,74.4,38.2,29.97,SW,225,10.4,10.4,27,0.00,CLR,,0.00,WeatherDisplay:10.37,2013-04-27 21:10:00,
2013-04-27 16:15:00,75.1,38.8,29.97,SW,222,9.2,9.2,27,0.00,CLR,,0.00,WeatherDisplay:10.37,2013-04-27 21:15:00,
2013-04-27 16:20:00,74.7,38.5,29.96,South,190,12.7,12.7,27,0.00,CLR,,0.00,WeatherDisplay:10.37,2013-04-27 21:20:00,
2013-04-27 16:25:00,74.2,38.1,29.96,SW,223,11.0,11.0,27,0.00,CLR,,0.00,WeatherDisplay:10.37,2013-04-27 21:25:00,
2013-04-27 16:30:00,72.8,36.9,29.96,SSW,192,13.8,13.8,27,0.00,CLR,,0.00,WeatherDisplay:10.37,2013-04-27 21:30:00,
2013-04-27 16:35:00,73.3,38.2,29.96,WSW,254,9.2,9.2,28,0.00,CLR,,0.00,WeatherDisplay:10.37,2013-04-27 21:35:00,
2013-04-27 16:40:00,74.2,39.0,29.96,SSE,165,10.4,10.4,28,0.00,CLR,,0.00,WeatherDisplay:10.37,2013-04-27 21:40:00,
2013-04-27 16:45:00,74.0,38.8,29.96,WSW,252,13.8,13.8,28,0.00,CLR,,0.00,WeatherDisplay:10.37,2013-04-27 21:45:00,
2013-04-27 16:50:00,74.6,38.4,29.95,SW,220,8.0,8.0,27,0.00,CLR,,0.00,WeatherDisplay:10.37,2013-04-27 21:50:00,
2013-04-27 16:55:00,74.0,37.9,29.95,SSW,211,12.0,12.0,27,0.00,CLR,,0.00,WeatherDisplay:10.37,2013-04-27 21:55:00,
2013-04-27 17:00:00,74.2,38.1,29.95,SW,236,6.9,6.9,27,0.00,CLR,,0.00,WeatherDisplay:10.37,2013-04-27 22:00:00,
2013-04-27 17:05:00,74.6,38.4,29.94,SSW,213,4.0,4.0,27,0.00,CLR,,0.00,WeatherDisplay:10.37,2013-04-27 22:05:00,
2013-04-27 17:10:00,74.4,39.2,29.94,SSE,161,10.4,10.4,28,0.00,CLR,,0.00,WeatherDisplay:10.37,2013-04-27 22:10:00,
2013-04-27 17:15:00,73.7,37.6,29.94,SW,226,11.5,11.5,27,0.00,CLR,,0.00,WeatherDisplay:10.37,2013-04-27 22:15:00,
2013-04-27 17:20:00,74.4,37.3,29.94,SSW,200,6.0,7.2,26,0.00,CLR,,0.00,WeatherDisplay:10.37,2013-04-27 22:20:00,
2013-04-27 17:25:00,74.0,37.9,29.94,SW,223,11.5,11.5,27,0.00,CLR,,0.00,WeatherDisplay:10.37,2013-04-27 22:25:00,
2013-04-27 17:30:00,73.9,38.7,29.94,South,182,13.8,13.8,28,0.00,CLR,,0.00,WeatherDisplay:10.37,2013-04-27 22:30:00,
2013-04-27 17:35:00,73.5,38.4,29.93,South,169,12.7,12.7,28,0.00,CLR,,0.00,WeatherDisplay:10.37,2013-04-27 22:35:00,
2013-04-27 17:40:00,73.2,39.0,29.93,SSW,203,13.8,13.8,29,0.00,CLR,,0.00,WeatherDisplay:10.37,2013-04-27 22:40:00,
2013-04-27 17:45:00,73.7,38.6,29.93,South,171,10.4,10.4,28,0.00,CLR,,0.00,WeatherDisplay:10.37,2013-04-27 22:45:00,
2013-04-27 17:50:00,73.9,38.7,29.93,South,179,10.4,10.4,28,0.00,CLR,,0.00,WeatherDisplay:10.37,2013-04-27 22:50:00,
2013-04-27 17:55:00,73.5,38.4,29.93,SW,214,14.0,14.0,28,0.00,CLR,,0.00,WeatherDisplay:10.37,2013-04-27 22:55:00,
2013-04-27 18:00:00,73.5,37.5,29.93,South,190,11.5,11.5,27,0.00,CLR,,0.00,WeatherDisplay:10.37,2013-04-27 23:00:00,
2013-04-27 18:05:00,73.5,38.4,29.93,South,171,5.8,5.8,28,0.00,SCT,,0.00,WeatherDisplay:10.37,2013-04-27 23:05:00,
2013-04-27 18:10:00,73.5,38.4,29.93,South,175,11.5,11.5,28,0.00,SCT,,0.00,WeatherDisplay:10.37,2013-04-27 23:10:00,
2013-04-27 18:15:00,73.5,38.4,29.93,SW,220,13.0,13.0,28,0.00,SCT,,0.00,WeatherDisplay:10.37,2013-04-27 23:15:00,
2013-04-27 18:20:00,73.5,38.4,29.93,SSW,194,5.8,5.8,28,0.00,SCT,,0.00,WeatherDisplay:10.37,2013-04-27 23:20:00,
2013-04-27 18:25:00,73.3,38.2,29.93,SW,219,15.0,15.0,28,0.00,SCT,,0.00,WeatherDisplay:10.37,2013-04-27 23:25:00,
2013-04-27 18:30:00,73.0,40.6,29.92,SSW,207,11.5,11.5,31,0.00,SCT,,0.00,WeatherDisplay:10.37,2013-04-27 23:30:00,
2013-04-27 18:35:00,72.5,41.7,29.92,South,179,18.4,18.4,33,0.00,SCT,,0.00,WeatherDisplay:10.37,2013-04-27 23:35:00,
2013-04-27 18:40:00,72.1,42.9,29.92,SSW,192,11.5,11.5,35,0.00,SCT,,0.00,WeatherDisplay:10.37,2013-04-27 23:40:00,
2013-04-27 18:45:00,71.8,42.7,29.92,South,180,11.5,11.5,35,0.00,SCT,,0.00,WeatherDisplay:10.37,2013-04-27 23:45:00,
2013-04-27 18:50:00,71.6,43.2,29.92,SSW,193,16.1,16.1,36,0.00,SCT,,0.00,WeatherDisplay:10.37,2013-04-27 23:50:00,
2013-04-27 18:55:00,71.3,43.7,29.92,SW,217,13.0,13.0,37,0.00,SCT,,0.00,WeatherDisplay:10.37,2013-04-27 23:55:00,
2013-04-27 19:00:00,70.9,44.0,29.92,SSW,205,17.3,17.3,38,0.00,SCT,,0.00,WeatherDisplay:10.37,2013-04-28 00:00:00,
2013-04-27 19:05:00,70.6,44.4,29.92,SSW,193,10.4,10.4,39,0.00,BKN,,0.00,WeatherDisplay:10.37,2013-04-28 00:05:00,
2013-04-27 19:10:00,70.3,45.5,29.92,SSW,195,11.5,11.5,41,0.00,BKN,,0.00,WeatherDisplay:10.37,2013-04-28 00:10:00,
2013-04-27 19:15:00,69.9,45.1,29.92,South,178,12.0,12.0,41,0.00,BKN,,0.00,WeatherDisplay:10.37,2013-04-28 00:15:00,
2013-04-27 19:20:00,69.6,44.8,29.92,SSW,192,11.5,11.5,41,0.00,BKN,,0.00,WeatherDisplay:10.37,2013-04-28 00:20:00,
2013-04-27 19:25:00,69.1,45.0,29.92,SSW,211,12.7,12.7,42,0.00,BKN,,0.00,WeatherDisplay:10.37,2013-04-28 00:25:00,
2013-04-27 19:30:00,68.8,46.0,29.92,SSW,194,12.7,12.7,44,0.00,BKN,,0.00,WeatherDisplay:10.37,2013-04-28 00:30:00,
2013-04-27 19:35:00,68.4,46.2,29.92,South,182,10.4,10.4,45,0.00,SCT,,0.00,WeatherDisplay:10.37,2013-04-28 00:35:00,
2013-04-27 19:40:00,67.9,46.3,29.92,SW,218,11.5,11.5,46,0.00,SCT,,0.00,WeatherDisplay:10.37,2013-04-28 00:40:00,
2013-04-27 19:50:00,67.6,46.1,29.92,South,184,5.0,10.0,46,0.00,CLR,,0.00,WeatherDisplay:10.37,2013-04-28 00:50:00,
2013-04-27 19:55:00,67.3,46.4,29.92,South,186,5.0,12.0,47,0.00,CLR,,0.00,WeatherDisplay:10.37,2013-04-28 00:55:00,
2013-04-27 20:00:00,66.9,46.0,29.92,South,190,5.0,11.0,47,0.00,CLR,,0.00,WeatherDisplay:10.37,2013-04-28 01:00:00,
2013-04-27 20:05:00,66.6,45.7,29.92,South,191,6.0,10.0,47,0.00,CLR,,0.00,WeatherDisplay:10.37,2013-04-28 01:05:00,
2013-04-27 20:10:00,66.4,46.7,29.92,South,190,5.0,10.0,49,0.00,CLR,,0.00,WeatherDisplay:10.37,2013-04-28 01:10:00,
2013-04-27 20:15:00,66.0,46.8,29.92,SSW,193,3.0,7.0,50,0.00,CLR,,0.00,WeatherDisplay:10.37,2013-04-28 01:15:00,
2013-04-27 20:20:00,65.5,46.9,29.92,SSW,194,5.0,7.0,51,0.00,CLR,,0.00,WeatherDisplay:10.37,2013-04-28 01:20:00,
2013-04-27 20:25:00,65.3,47.2,29.92,South,189,3.0,9.0,52,0.00,CLR,,0.00,WeatherDisplay:10.37,2013-04-28 01:25:00,
2013-04-27 20:30:00,65.0,46.9,29.91,South,187,5.0,8.0,52,0.00,CLR,,0.00,WeatherDisplay:10.37,2013-04-28 01:30:00,
2013-04-27 20:35:00,64.7,46.7,29.91,South,185,5.0,9.0,52,0.00,CLR,,0.00,WeatherDisplay:10.37,2013-04-28 01:35:00,
2013-04-27 20:40:00,64.5,47.0,29.91,South,190,6.0,9.0,53,0.00,CLR,,0.00,WeatherDisplay:10.37,2013-04-28 01:40:00,
2013-04-27 20:45:00,64.2,46.7,29.91,SSW,198,5.0,8.0,53,0.00,CLR,,0.00,WeatherDisplay:10.37,2013-04-28 01:45:00,
2013-04-27 20:50:00,63.9,46.9,29.91,SSW,200,5.0,7.0,54,0.00,CLR,,0.00,WeatherDisplay:10.37,2013-04-28 01:50:00,
2013-04-27 20:55:00,63.5,46.6,29.91,SSW,200,5.0,7.0,54,0.00,CLR,,0.00,WeatherDisplay:10.37,2013-04-28 01:55:00,
2013-04-27 21:03:00,63.2,46.8,29.91,SSE,167,4.6,5.0,55,0.00,CLR,,0.00,WeatherDisplay:10.37,2013-04-28 02:03:00,
2013-04-27 21:08:00,63.1,47.1,29.91,SSW,202,5.8,5.8,56,0.00,SCT,,0.00,WeatherDisplay:10.37,2013-04-28 02:08:00,
2013-04-27 21:13:00,62.9,47.0,29.91,South,188,3.5,3.5,56,0.00,SCT,,0.00,WeatherDisplay:10.37,2013-04-28 02:13:00,
2013-04-27 21:18:00,62.6,46.7,29.91,South,174,4.6,4.6,56,0.00,CLR,,0.00,WeatherDisplay:10.37,2013-04-28 02:18:00,
2013-04-27 21:23:00,62.4,46.5,29.91,SSE,161,7.0,7.0,56,0.00,CLR,,0.00,WeatherDisplay:10.37,2013-04-28 02:23:00,
2013-04-27 21:28:00,61.8,47.3,29.91,SSE,168,4.6,4.6,59,0.00,CLR,,0.00,WeatherDisplay:10.37,2013-04-28 02:28:00,
2013-04-27 21:33:00,61.2,47.2,29.92,SSE,168,4.0,4.0,60,0.00,CLR,,0.00,WeatherDisplay:10.37,2013-04-28 02:33:00,
2013-04-27 21:38:00,60.5,47.0,29.92,South,175,5.8,5.8,61,0.00,CLR,,0.00,WeatherDisplay:10.37,2013-04-28 02:38:00,
2013-04-27 21:43:00,60.2,47.1,29.92,SSE,154,5.8,5.8,62,0.00,CLR,,0.00,WeatherDisplay:10.37,2013-04-28 02:43:00,
2013-04-27 21:48:00,60.1,47.0,29.92,South,177,5.8,5.8,62,0.00,CLR,,0.00,WeatherDisplay:10.37,2013-04-28 02:48:00,
2013-04-27 21:53:00,59.9,46.8,29.92,South,175,6.0,6.0,62,0.00,CLR,,0.00,WeatherDisplay:10.37,2013-04-28 02:53:00,
2013-04-27 21:58:00,59.9,46.8,29.92,SSE,162,6.9,6.9,62,0.00,CLR,,0.00,WeatherDisplay:10.37,2013-04-28 02:58:00,
2013-04-27 22:03:00,59.8,47.2,29.92,South,175,10.4,10.4,63,0.00,CLR,,0.00,WeatherDisplay:10.37,2013-04-28 03:03:00,
2013-04-27 22:08:00,59.5,47.3,29.92,South,180,10.4,10.4,64,0.00,CLR,,0.00,WeatherDisplay:10.37,2013-04-28 03:08:00,
2013-04-27 22:13:00,59.3,47.5,29.92,South,169,6.9,6.9,65,0.00,CLR,,0.00,WeatherDisplay:10.37,2013-04-28 03:13:00,
2013-04-27 22:18:00,59.0,47.7,29.92,SSE,167,9.2,9.2,66,0.00,CLR,,0.00,WeatherDisplay:10.37,2013-04-28 03:18:00,
2013-04-27 22:23:00,58.9,47.6,29.92,South,170,9.0,9.0,66,0.00,CLR,,0.00,WeatherDisplay:10.37,2013-04-28 03:23:00,
2013-04-27 22:28:00,58.6,47.7,29.92,SSE,163,6.9,6.9,67,0.00,CLR,,0.00,WeatherDisplay:10.37,2013-04-28 03:28:00,
2013-04-27 22:33:00,58.1,47.6,29.92,South,173,9.2,9.2,68,0.00,CLR,,0.00,WeatherDisplay:10.37,2013-04-28 03:33:00,
2013-04-27 22:38:00,57.8,47.7,29.92,South,180,11.5,11.5,69,0.00,CLR,,0.00,WeatherDisplay:10.37,2013-04-28 03:38:00,
2013-04-27 22:43:00,57.8,47.3,29.92,SSW,197,11.5,11.5,68,0.00,CLR,,0.00,WeatherDisplay:10.37,2013-04-28 03:43:00,
2013-04-27 22:48:00,58.4,47.1,29.91,SSE,167,15.0,15.0,66,0.00,CLR,,0.00,WeatherDisplay:10.37,2013-04-28 03:48:00,
2013-04-27 22:53:00,58.7,47.0,29.91,South,175,11.5,11.5,65,0.00,CLR,,0.00,WeatherDisplay:10.37,2013-04-28 03:53:00,
2013-04-27 22:58:00,59.0,46.8,29.91,South,171,11.5,11.5,64,0.00,CLR,,0.00,WeatherDisplay:10.37,2013-04-28 03:58:00,
2013-04-27 23:01:00,59.0,46.8,29.91,SSE,162,11.5,11.5,64,0.00,CLR,,0.00,WeatherDisplay:10.37,2013-04-28 04:01:00,
2013-04-27 23:06:00,58.9,46.7,29.91,South,176,12.7,12.7,64,0.00,CLR,,0.00,WeatherDisplay:10.37,2013-04-28 04:06:00,
2013-04-27 23:11:00,58.7,46.5,29.91,SSW,206,11.5,11.5,64,0.00,CLR,,0.00,WeatherDisplay:10.37,2013-04-28 04:11:00,
2013-04-27 23:16:00,58.6,46.9,29.90,South,176,11.5,11.5,65,0.00,CLR,,0.00,WeatherDisplay:10.37,2013-04-28 04:16:00,
2013-04-27 23:21:00,58.4,46.7,29.90,SSW,196,10.4,10.4,65,0.00,CLR,,0.00,WeatherDisplay:10.37,2013-04-28 04:21:00,
2013-04-27 23:26:00,58.3,46.6,29.90,South,178,9.2,9.2,65,0.00,CLR,,0.00,WeatherDisplay:10.37,2013-04-28 04:26:00,
2013-04-27 23:31:00,58.1,46.4,29.91,South,191,12.0,12.0,65,0.00,CLR,,0.00,WeatherDisplay:10.37,2013-04-28 04:31:00,
2013-04-27 23:36:00,58.0,46.3,29.91,SSW,192,11.5,11.5,65,0.00,CLR,,0.00,WeatherDisplay:10.37,2013-04-28 04:36:00,
2013-04-27 23:41:00,57.8,46.1,29.91,South,181,11.5,11.5,65,0.00,CLR,,0.00,WeatherDisplay:10.37,2013-04-28 04:41:00,
2013-04-27 23:46:00,57.6,46.3,29.90,SSW,195,10.4,10.4,66,0.00,CLR,,0.00,WeatherDisplay:10.37,2013-04-28 04:46:00,
2013-04-27 23:51:00,57.5,46.2,29.90,SSE,162,6.9,6.9,66,0.00,CLR,,0.00,WeatherDisplay:10.37,2013-04-28 04:51:00,
2013-04-27 23:56:00,57.2,45.9,29.90,SSE,163,11.5,11.5,66,0.00,CLR,,0.00,WeatherDisplay:10.37,2013-04-28 04:56:00,